Decoded Metar for KOCW (WASHINGTON in NC, USA) (IATA:OCW) | Meteo·Mobile Aviation Weather
aviador You're here:

KOCW Decoded Metar

WASHINGTON in NC, USA
Report Time2018-09-22 03:05:00
UTC Time2018-09-22 03:41:37
Flight Rules vfr VFR
WindCalm
Visibility9999 m
Phenomena:N/A
Clouds:N/A
Expected CloudBase > 800 ft AGL from Temp-Dew spread
CeilingNone
Temp22°C (ISA +7)
Dew Point20°C (88% RH)
QNH1021 hPa
Density Alt902 ft
Elevation39 ft
Report Wrong Elevation
Raw Report
METAR KOCW 220305Z AUTO 00000KT 10SM CLR 22/20 A3015 RMK AO2 T02200195=

Extra information for KOCW:More info

Metar Taf Metar & Taf Last 4 Metars F.Rules Stats Wind Profile Meteogram Temp Stats Airport Information Weather charts Add Link Nearby VenuesMetar ALERT Operation Metar Decoded Social comments

AIRNAV info for KOCW